Time;durP1;ratioP1;P1;durP2;ratioP2;P2;SDS_P1;SDS_P2;PMS_P1;PMS_P2;Temp;Humidity;BMP_temperature;BMP_pressure;BME280_temperature;BME280_humidity;BME280_pressure;Samples;Min_cycle;Max_cycle;Signal;HPM_P1;HPM_P2
2023/07/25 00:02:39;;;;;;;3.08;2.22;;;;;;;20.14;63.66;98111.59;7218445;40;20296;31
2023/07/25 00:13:17;;;;;;;4.23;2.20;;;;;;;20.02;64.66;98101.88;7239997;40;20336;31
2023/07/25 00:23:41;;;;;;;5.30;2.12;;;;;;;20.15;63.97;98096.03;7321863;39;20295;31
2023/07/25 00:29:12;;;;;;;2.37;2.10;;;;;;;20.06;63.41;98087.44;7314861;39;20423;31
2023/07/25 00:34:29;;;;;;;5.15;2.20;;;;;;;20.16;63.91;98084.84;7253837;40;20379;31
2023/07/25 00:40:04;;;;;;;2.78;2.10;;;;;;;20.29;62.85;98080.03;7295366;39;20488;31
2023/07/25 00:45:37;;;;;;;2.80;1.90;;;;;;;20.30;63.37;98063.41;7224995;40;20443;31
2023/07/25 00:51:12;;;;;;;3.10;2.30;;;;;;;20.21;63.39;98084.06;7220619;40;20527;31
2023/07/25 00:56:48;;;;;;;3.80;2.20;;;;;;;20.23;63.43;98087.34;7027125;40;20262;31
2023/07/25 01:02:21;;;;;;;3.13;2.27;;;;;;;20.24;64.18;98083.53;7163898;40;20254;31
2023/07/25 01:07:56;;;;;;;3.47;1.97;;;;;;;20.26;63.76;98075.91;7213691;40;22119;31
2023/07/25 01:13:13;;;;;;;4.67;2.10;;;;;;;20.31;64.07;98081.50;7138944;40;20262;31
2023/07/25 01:18:46;;;;;;;1.97;1.80;;;;;;;20.28;65.02;98090.16;7191307;40;20259;31
2023/07/25 01:24:22;;;;;;;2.90;2.10;;;;;;;20.21;64.63;98084.91;7192931;40;20278;31
2023/07/25 01:34:46;;;;;;;3.30;2.10;;;;;;;20.08;67.18;98090.75;7193170;40;20285;31
2023/07/25 01:45:25;;;;;;;2.28;2.00;;;;;;;20.01;67.77;98100.25;7264280;39;20375;31
2023/07/25 01:50:43;;;;;;;4.32;2.37;;;;;;;20.02;67.19;98086.28;7293475;39;20264;31
2023/07/25 01:56:04;;;;;;;3.67;2.20;;;;;;;20.05;67.21;98088.50;7278399;40;20302;31
2023/07/25 02:07:38;;;;;;;3.58;2.33;;;;;;;20.09;67.80;98078.72;7285298;39;21412;31
2023/07/25 02:13:13;;;;;;;3.00;2.05;;;;;;;20.11;68.76;98073.00;7252954;40;20273;31
2023/07/25 02:23:53;;;;;;;2.65;2.40;;;;;;;20.03;69.99;98059.75;7315499;39;20276;31
2023/07/25 02:34:32;;;;;;;5.10;2.55;;;;;;;20.05;68.06;98065.81;7229550;40;20385;31
2023/07/25 02:40:08;;;;;;;2.80;2.50;;;;;;;20.04;69.75;98051.31;7235061;40;20461;31
2023/07/25 02:45:29;;;;;;;2.77;2.30;;;;;;;20.03;69.02;98035.97;7230877;40;20460;31
2023/07/25 02:50:49;;;;;;;2.50;2.10;;;;;;;19.93;69.23;98038.56;7259291;40;20354;31
2023/07/25 02:56:22;;;;;;;3.50;2.43;;;;;;;19.86;68.84;98021.53;7252305;40;20260;31
2023/07/25 03:01:54;;;;;;;5.87;2.17;;;;;;;19.80;69.49;97998.78;7231494;40;20285;31
2023/07/25 03:07:15;;;;;;;3.17;2.23;;;;;;;19.78;69.54;97986.44;7272615;40;20267;31
2023/07/25 03:12:52;;;;;;;3.10;2.30;;;;;;;19.92;70.05;97986.88;7273721;40;20248;31
2023/07/25 03:18:11;;;;;;;6.00;2.30;;;;;;;19.96;69.75;97999.78;7181939;40;20258;31
2023/07/25 03:23:45;;;;;;;3.00;2.40;;;;;;;19.92;69.36;97990.41;7215294;40;20339;31
2023/07/25 03:29:21;;;;;;;2.97;2.20;;;;;;;19.80;70.84;97998.78;7204721;40;20250;31
2023/07/25 03:34:57;;;;;;;3.00;2.10;;;;;;;19.73;69.43;97997.31;7154167;40;20285;31
2023/07/25 03:40:17;;;;;;;2.50;2.20;;;;;;;19.68;70.55;97989.03;7137881;40;20259;31
2023/07/25 03:45:53;;;;;;;3.40;2.10;;;;;;;19.77;68.99;97996.56;7155208;40;20273;31
2023/07/25 03:51:13;;;;;;;4.33;2.27;;;;;;;19.77;69.84;97982.88;7234777;40;20449;31
2023/07/25 03:56:30;;;;;;;3.15;2.50;;;;;;;19.78;69.77;97970.03;7266081;40;20351;31
2023/07/25 04:02:05;;;;;;;3.73;2.17;;;;;;;19.75;69.49;97965.06;7293343;39;20367;31
2023/07/25 04:07:26;;;;;;;2.80;2.30;;;;;;;19.79;70.33;97952.53;7236593;40;20288;31
2023/07/25 04:12:58;;;;;;;3.17;2.00;;;;;;;19.79;69.67;97960.72;7226251;40;20261;31
2023/07/25 04:18:31;;;;;;;3.17;2.10;;;;;;;19.75;70.30;97963.16;7243698;40;21517;31
2023/07/25 04:23:48;;;;;;;3.07;2.40;;;;;;;19.71;70.55;97959.28;7214240;40;20285;31
2023/07/25 04:29:08;;;;;;;2.70;2.20;;;;;;;19.70;71.14;97981.44;7250191;40;20265;31
2023/07/25 04:34:44;;;;;;;2.70;2.40;;;;;;;19.66;71.83;97967.41;7239385;40;20273;31
2023/07/25 04:40:20;;;;;;;4.83;2.10;;;;;;;19.67;71.42;97960.03;7222989;40;20541;31
2023/07/25 04:45:52;;;;;;;3.15;2.20;;;;;;;19.72;70.23;97971.88;7209321;40;20289;31
2023/07/25 04:51:28;;;;;;;3.13;2.47;;;;;;;19.73;71.54;97970.81;7177848;40;20480;31
2023/07/25 04:57:03;;;;;;;4.07;2.30;;;;;;;19.69;71.94;97977.88;7194691;40;20266;31
2023/07/25 05:02:38;;;;;;;3.90;2.30;;;;;;;19.68;72.02;97998.06;7208088;40;20262;31
2023/07/25 05:08:14;;;;;;;3.57;2.43;;;;;;;19.65;72.82;98014.16;7220811;40;20280;31
2023/07/25 05:13:34;;;;;;;4.00;2.50;;;;;;;19.67;72.09;98025.66;7205250;40;20258;31
2023/07/25 05:18:54;;;;;;;3.57;2.20;;;;;;;19.68;72.89;98027.31;7238296;40;20479;31
2023/07/25 05:24:28;;;;;;;3.00;2.27;;;;;;;19.61;72.81;98030.25;7226226;40;20374;31
2023/07/25 05:30:00;;;;;;;2.30;2.10;;;;;;;19.66;72.52;98035.75;7254999;39;20419;31
2023/07/25 05:35:35;;;;;;;3.10;2.30;;;;;;;19.56;72.82;98038.38;7224562;40;20269;31
2023/07/25 05:41:11;;;;;;;4.77;2.47;;;;;;;19.46;73.52;98027.31;7153728;40;20271;31
2023/07/25 05:46:31;;;;;;;3.05;2.50;;;;;;;19.49;73.13;98025.97;7135276;40;20255;31
2023/07/25 05:51:51;;;;;;;2.40;2.10;;;;;;;19.37;74.09;98013.22;7153326;40;20364;31
2023/07/25 05:57:27;;;;;;;3.65;2.30;;;;;;;19.34;74.58;98029.28;7224269;40;20348;31
2023/07/25 06:03:03;;;;;;;3.10;2.60;;;;;;;19.46;75.64;98019.09;7212541;40;20254;31
2023/07/25 06:08:23;;;;;;;3.80;2.45;;;;;;;19.45;77.02;98013.88;7211686;40;20258;31
2023/07/25 06:13:59;;;;;;;4.17;2.90;;;;;;;19.42;77.84;98014.38;7193466;40;20348;31
2023/07/25 06:19:19;;;;;;;3.30;2.93;;;;;;;19.19;77.91;98001.72;7233111;40;20264;31
2023/07/25 06:24:54;;;;;;;4.27;2.70;;;;;;;19.25;78.05;98000.75;7263193;40;20291;31
2023/07/25 06:30:30;;;;;;;3.85;2.70;;;;;;;19.35;77.91;97987.19;7218491;40;20347;31
2023/07/25 06:36:05;;;;;;;3.53;2.83;;;;;;;19.24;79.24;97986.25;7256327;39;20265;31
2023/07/25 06:41:40;;;;;;;3.45;2.70;;;;;;;19.08;80.60;97969.91;7175069;40;20273;31
2023/07/25 06:47:16;;;;;;;5.03;2.83;;;;;;;19.18;80.77;97961.81;7170324;40;20351;31
2023/07/25 06:52:36;;;;;;;5.50;2.87;;;;;;;19.52;79.54;97962.59;7203360;40;20355;31
2023/07/25 06:58:11;;;;;;;3.77;2.47;;;;;;;19.49;79.48;97955.72;7219120;40;20289;31
2023/07/25 07:03:47;;;;;;;2.53;2.20;;;;;;;19.51;79.33;97950.00;7207644;40;20278;31
2023/07/25 07:09:08;;;;;;;3.00;2.20;;;;;;;19.75;79.05;97932.25;7206223;40;20276;31
2023/07/25 07:14:40;;;;;;;2.75;2.15;;;;;;;20.04;78.01;97927.37;7231816;40;20275;31
2023/07/25 07:20:16;;;;;;;2.30;1.70;;;;;;;20.02;76.28;97935.00;7202743;40;20687;31
2023/07/25 07:25:38;;;;;;;2.30;2.00;;;;;;;19.91;76.91;97925.06;7160914;40;20255;31
2023/07/25 07:30:54;;;;;;;3.55;1.80;;;;;;;20.27;76.06;97918.03;7239731;40;20249;31
2023/07/25 07:36:28;;;;;;;4.17;2.20;;;;;;;20.61;74.00;97920.25;7234097;40;20780;31
2023/07/25 07:41:48;;;;;;;3.53;1.97;;;;;;;20.54;73.85;97929.75;7060172;40;21500;31
2023/07/25 07:47:08;;;;;;;3.00;2.13;;;;;;;20.49;75.08;97932.47;7272956;39;20297;31
2023/07/25 07:52:44;;;;;;;2.53;1.90;;;;;;;20.41;74.25;97922.81;7255356;40;20261;31
2023/07/25 07:58:16;;;;;;;3.55;1.77;;;;;;;20.66;73.32;97923.03;7262480;40;21996;31
2023/07/25 08:03:36;;;;;;;3.60;1.80;;;;;;;20.52;72.55;97934.69;7211678;40;20277;31
2023/07/25 08:09:12;;;;;;;3.47;1.90;;;;;;;20.78;71.72;97913.78;7239473;40;20281;31
2023/07/25 08:14:29;;;;;;;3.00;1.77;;;;;;;20.90;70.71;97928.94;7270371;40;20374;31
2023/07/25 08:20:01;;;;;;;3.05;1.70;;;;;;;20.63;70.74;97930.94;7233490;40;20278;31
2023/07/25 08:25:34;;;;;;;2.20;1.60;;;;;;;20.57;70.03;97927.34;7224465;40;20260;31
2023/07/25 08:31:15;;;;;;;2.60;1.70;;;;;;;20.54;70.91;97932.50;7274014;40;20346;31
2023/07/25 08:36:47;;;;;;;3.40;1.80;;;;;;;20.59;71.87;97935.28;7274804;40;20264;31
2023/07/25 08:42:20;;;;;;;3.00;1.80;;;;;;;20.64;71.34;97932.59;7215955;40;20250;31
2023/07/25 08:47:52;;;;;;;2.85;1.80;;;;;;;20.52;72.64;97940.16;7185345;40;20281;31
2023/07/25 08:53:24;;;;;;;2.40;2.00;;;;;;;20.32;73.74;97953.66;7123930;40;20455;31
2023/07/25 08:59:00;;;;;;;6.05;2.70;;;;;;;20.16;75.45;97948.00;7159445;40;20305;31
2023/07/25 09:04:35;;;;;;;2.30;1.90;;;;;;;20.07;76.31;97952.31;7177882;40;20285;31
2023/07/25 09:10:10;;;;;;;2.50;1.90;;;;;;;20.19;77.12;97960.34;7233037;40;20291;31
2023/07/25 09:15:46;;;;;;;4.87;2.37;;;;;;;20.25;77.53;97971.09;7234541;40;20254;31
2023/07/25 09:21:21;;;;;;;2.70;1.40;;;;;;;20.21;76.79;97967.22;7223405;40;20262;31
2023/07/25 09:26:39;;;;;;;2.17;1.70;;;;;;;20.56;76.55;97972.22;7194104;40;20246;31
2023/07/25 09:32:11;;;;;;;1.83;1.63;;;;;;;20.72;75.89;97964.13;7196115;40;20318;31
2023/07/25 09:37:46;;;;;;;2.00;1.77;;;;;;;20.60;75.80;97973.37;7204184;40;21425;31
2023/07/25 09:43:22;;;;;;;6.37;1.60;;;;;;;20.69;75.16;97971.78;7223121;40;20250;31
2023/07/25 09:48:56;;;;;;;3.23;1.50;;;;;;;20.77;76.08;97975.13;7198781;40;20265;31
2023/07/25 09:54:28;;;;;;;2.25;1.50;;;;;;;20.50;74.03;97976.00;7233436;40;20351;31
2023/07/25 10:00:00;;;;;;;1.50;1.10;;;;;;;20.48;73.08;97967.25;7225294;40;20467;31
2023/07/25 10:05:37;;;;;;;1.43;0.90;;;;;;;20.46;72.67;97969.41;7173994;40;20270;31
2023/07/25 10:16:17;;;;;;;3.00;1.40;;;;;;;20.53;72.07;97986.47;7216841;40;20265;31
2023/07/25 10:22:01;;;;;;;2.13;0.90;;;;;;;20.15;71.93;98001.09;7219019;40;20351;31
2023/07/25 10:27:37;;;;;;;1.33;0.87;;;;;;;20.07;72.53;98007.03;7235722;40;20257;31
2023/07/25 10:33:14;;;;;;;1.23;0.90;;;;;;;19.99;71.77;98018.41;7233459;40;20265;31
2023/07/25 10:38:49;;;;;;;0.80;0.80;;;;;;;19.95;73.44;98030.12;7215214;40;20246;31
2023/07/25 10:44:25;;;;;;;1.27;1.00;;;;;;;20.22;72.78;98020.88;7184945;40;20250;31
2023/07/25 10:50:09;;;;;;;0.80;0.80;;;;;;;20.53;72.23;98019.31;7184954;40;20254;31
2023/07/25 10:55:40;;;;;;;1.20;0.80;;;;;;;20.51;69.90;98029.69;7196311;40;20280;31
2023/07/25 11:01:12;;;;;;;1.93;0.90;;;;;;;20.50;69.94;98044.44;7207395;40;20266;31
2023/07/25 11:07:10;;;;;;;0.87;0.87;;;;;;;20.50;71.02;98052.66;7214766;40;20394;31
2023/07/25 11:12:41;;;;;;;1.10;1.00;;;;;;;20.07;68.19;98049.97;7212820;40;20259;31
2023/07/25 11:18:17;;;;;;;1.30;1.20;;;;;;;19.88;68.66;98065.84;7174924;40;20360;31
2023/07/25 11:23:49;;;;;;;1.57;1.10;;;;;;;20.12;69.93;98077.38;7194271;40;20246;31
2023/07/25 11:29:25;;;;;;;1.20;1.10;;;;;;;20.36;69.22;98091.66;7177243;40;20268;31
2023/07/25 11:35:01;;;;;;;2.65;1.25;;;;;;;20.38;68.31;98097.69;7222536;40;20372;31
2023/07/25 11:40:36;;;;;;;1.40;1.00;;;;;;;20.50;68.46;98090.16;7203080;40;20398;31
2023/07/25 11:46:09;;;;;;;1.60;1.30;;;;;;;20.43;67.64;98104.06;7167837;40;20357;31
2023/07/25 11:51:44;;;;;;;2.23;1.50;;;;;;;20.43;69.54;98111.44;7144793;40;20282;31
2023/07/25 11:57:20;;;;;;;1.85;1.45;;;;;;;20.47;69.73;98118.87;7162213;40;20278;31
2023/07/25 12:08:04;;;;;;;1.50;1.30;;;;;;;20.08;70.75;98122.75;7162491;40;20293;31
2023/07/25 12:13:24;;;;;;;1.60;1.50;;;;;;;20.10;70.25;98121.41;7220611;40;20265;31
2023/07/25 12:18:59;;;;;;;1.40;1.20;;;;;;;20.16;70.96;98120.41;7268583;39;20578;31
2023/07/25 12:24:32;;;;;;;1.80;1.50;;;;;;;20.28;70.94;98120.25;7275088;40;20257;31
2023/07/25 12:29:52;;;;;;;2.03;1.60;;;;;;;20.27;70.62;98120.53;7189924;40;20372;31
2023/07/25 12:40:30;;;;;;;1.63;1.53;;;;;;;20.40;71.48;98112.81;7189140;40;20292;31
2023/07/25 12:51:09;;;;;;;1.80;1.50;;;;;;;20.42;70.92;98107.88;7331765;39;21050;31
2023/07/25 12:56:45;;;;;;;1.55;1.45;;;;;;;20.31;69.94;98113.50;7295233;39;20365;31
2023/07/25 13:02:17;;;;;;;2.30;1.70;;;;;;;20.38;70.39;98117.69;7314045;39;20348;31
2023/07/25 13:07:37;;;;;;;1.90;1.60;;;;;;;20.32;70.06;98115.97;7296601;39;20235;31
2023/07/25 13:13:13;;;;;;;1.73;1.60;;;;;;;20.16;71.11;98125.03;7313728;39;20506;31
2023/07/25 13:18:48;;;;;;;1.80;1.60;;;;;;;20.21;71.28;98130.59;7255069;40;20714;31
2023/07/25 13:29:28;;;;;;;2.23;1.67;;;;;;;20.37;73.10;98135.19;7203928;40;20284;31
2023/07/25 13:35:03;;;;;;;2.40;1.60;;;;;;;20.43;73.36;98127.88;7198229;40;20363;31
2023/07/25 13:40:24;;;;;;;3.05;1.70;;;;;;;20.36;72.36;98128.06;7215630;40;20254;31
2023/07/25 13:46:00;;;;;;;2.03;1.60;;;;;;;20.31;72.03;98118.97;7232907;40;20257;31
2023/07/25 13:51:32;;;;;;;1.90;1.50;;;;;;;20.17;72.33;98124.81;7224594;40;20250;31
2023/07/25 13:56:53;;;;;;;2.60;2.03;;;;;;;19.92;74.29;98138.12;7215366;40;20369;31
2023/07/25 14:02:28;;;;;;;5.00;2.20;;;;;;;19.34;75.30;98144.06;7011850;40;21498;31
2023/07/25 14:08:07;;;;;;;3.33;2.40;;;;;;;19.16;75.28;98153.34;7214691;40;20273;31
2023/07/25 14:18:43;;;;;;;5.80;2.65;;;;;;;19.15;75.39;98178.16;7280813;39;20447;31
2023/07/25 14:24:05;;;;;;;3.30;2.50;;;;;;;19.16;75.31;98190.75;7206570;40;20249;31
2023/07/25 14:29:23;;;;;;;2.85;2.45;;;;;;;19.19;74.00;98195.72;7256073;40;22184;31
2023/07/25 14:35:00;;;;;;;3.00;2.40;;;;;;;19.16;74.86;98194.31;7270727;40;21229;31
2023/07/25 14:40:35;;;;;;;4.30;2.45;;;;;;;19.16;74.37;98212.59;7239945;40;21747;31
2023/07/25 14:45:53;;;;;;;3.17;2.50;;;;;;;19.05;74.64;98227.13;7275545;40;20378;31
2023/07/25 14:51:23;;;;;;;3.60;2.40;;;;;;;18.96;76.14;98229.44;7247549;40;20264;31
2023/07/25 14:56:58;;;;;;;3.20;2.30;;;;;;;19.05;75.28;98219.78;7232609;40;20250;31
2023/07/25 15:02:18;;;;;;;3.50;2.70;;;;;;;19.02;76.66;98239.38;7236479;40;20285;31
2023/07/25 15:07:55;;;;;;;3.90;3.00;;;;;;;18.99;77.15;98239.87;7180807;40;20266;31
2023/07/25 15:13:14;;;;;;;3.40;2.80;;;;;;;18.95;76.57;98248.81;7211953;40;20268;31
2023/07/25 15:18:31;;;;;;;4.90;3.60;;;;;;;18.99;76.54;98247.25;7211732;40;20349;31
2023/07/25 15:24:03;;;;;;;4.30;3.10;;;;;;;18.99;76.60;98263.63;7263880;40;21420;31
2023/07/25 15:29:38;;;;;;;4.57;3.30;;;;;;;18.99;75.81;98260.91;7220591;40;20257;31
2023/07/25 15:35:00;;;;;;;4.65;3.00;;;;;;;19.01;76.26;98269.66;7177797;40;20286;31
2023/07/25 15:40:34;;;;;;;3.65;3.10;;;;;;;19.05;76.99;98265.38;7196327;40;20340;31
2023/07/25 15:45:52;;;;;;;4.17;3.20;;;;;;;19.09;76.43;98272.84;7209087;40;21939;31
2023/07/25 15:51:26;;;;;;;3.60;3.30;;;;;;;19.11;76.00;98278.91;7207633;40;21332;31
2023/07/25 15:57:00;;;;;;;3.30;2.90;;;;;;;19.15;76.15;98280.06;7278280;40;21359;31
2023/07/25 16:02:21;;;;;;;3.80;3.10;;;;;;;19.17;77.04;98283.41;7223034;40;20387;31
2023/07/25 16:07:42;;;;;;;3.40;2.70;;;;;;;19.18;75.72;98290.50;7247859;40;20245;31
2023/07/25 16:13:15;;;;;;;3.83;2.90;;;;;;;19.10;76.38;98293.63;7262919;40;20257;31
2023/07/25 16:18:36;;;;;;;3.67;2.87;;;;;;;19.09;76.62;98300.16;7212249;40;20372;31
2023/07/25 16:23:52;;;;;;;3.37;2.80;;;;;;;19.07;76.59;98302.31;7235584;40;20259;31
2023/07/25 16:29:27;;;;;;;3.65;2.95;;;;;;;18.88;77.57;98303.56;7216064;40;20307;31
2023/07/25 16:34:45;;;;;;;4.20;2.80;;;;;;;18.88;77.18;98314.47;7237783;40;20335;31
2023/07/25 16:40:20;;;;;;;5.43;3.30;;;;;;;18.86;76.82;98314.75;7234177;40;20261;31
2023/07/25 16:45:57;;;;;;;4.50;3.70;;;;;;;18.91;76.58;98323.00;7136970;40;20373;31
2023/07/25 16:51:17;;;;;;;5.30;3.40;;;;;;;18.95;76.65;98326.13;7132373;40;20282;31
2023/07/25 16:56:37;;;;;;;4.75;3.60;;;;;;;19.00;76.52;98330.84;7170503;40;20391;31
2023/07/25 17:02:13;;;;;;;3.77;3.43;;;;;;;19.00;76.45;98339.06;7237221;40;20257;31
2023/07/25 17:07:47;;;;;;;4.50;3.57;;;;;;;18.97;76.34;98339.50;7236222;40;20252;31
2023/07/25 17:13:08;;;;;;;3.60;3.30;;;;;;;18.92;76.01;98338.34;7253475;40;20371;31
2023/07/25 17:18:44;;;;;;;4.37;3.20;;;;;;;18.96;76.39;98344.12;7174729;40;20332;31
2023/07/25 17:24:16;;;;;;;6.57;4.00;;;;;;;18.99;76.06;98357.34;7156926;40;20270;31
2023/07/25 17:29:51;;;;;;;5.70;4.00;;;;;;;18.95;75.53;98369.81;7174502;40;21780;31
2023/07/25 17:35:27;;;;;;;5.12;3.37;;;;;;;18.86;75.76;98374.00;7143198;40;20390;31
2023/07/25 17:40:48;;;;;;;5.03;4.07;;;;;;;18.74;76.25;98382.16;7185464;40;20259;31
2023/07/25 17:46:21;;;;;;;6.63;3.90;;;;;;;18.80;76.35;98378.50;7218025;40;20293;31
2023/07/25 17:56:58;;;;;;;3.80;3.40;;;;;;;18.78;76.47;98391.53;7216017;40;20386;31
2023/07/25 18:07:22;;;;;;;5.44;3.60;;;;;;;18.73;76.40;98398.81;7168637;40;20389;31
2023/07/25 18:12:58;;;;;;;5.47;4.07;;;;;;;18.72;75.50;98408.91;7295952;39;20588;31
2023/07/25 18:23:20;;;;;;;4.20;3.80;;;;;;;18.64;75.96;98425.66;7232517;40;20277;31
2023/07/25 18:28:52;;;;;;;6.05;4.65;;;;;;;18.63;75.14;98442.25;7211467;40;20400;31
2023/07/25 18:39:16;;;;;;;5.30;4.80;;;;;;;18.61;75.85;98461.59;7272488;40;20634;31
2023/07/25 18:44:52;;;;;;;6.60;4.60;;;;;;;18.56;75.69;98475.09;7239940;40;20253;31
2023/07/25 18:50:24;;;;;;;7.67;5.00;;;;;;;18.50;75.42;98470.56;7242324;40;20266;31
2023/07/25 18:55:56;;;;;;;5.97;4.90;;;;;;;18.41;75.76;98480.16;7217044;40;20295;31
2023/07/25 19:01:33;;;;;;;7.70;6.00;;;;;;;18.33;75.73;98492.25;7196736;40;20242;31
2023/07/25 19:06:53;;;;;;;7.50;5.65;;;;;;;18.33;75.24;98491.41;7176205;40;20342;31
2023/07/25 19:12:28;;;;;;;7.67;6.83;;;;;;;18.26;76.23;98498.84;7235396;40;20328;31
2023/07/25 19:18:04;;;;;;;8.43;6.53;;;;;;;18.23;76.10;98512.97;7199967;40;20281;31
2023/07/25 19:23:24;;;;;;;8.45;6.80;;;;;;;18.25;76.47;98514.44;7200980;40;20270;31
2023/07/25 19:28:56;;;;;;;7.77;7.07;;;;;;;18.27;76.49;98517.72;7235656;40;20262;31
2023/07/25 19:34:33;;;;;;;8.73;7.73;;;;;;;18.29;76.33;98534.72;7151350;40;20261;31
2023/07/25 19:39:52;;;;;;;10.23;8.03;;;;;;;18.02;76.99;98528.81;7215365;40;20371;31
2023/07/25 19:45:28;;;;;;;11.30;8.57;;;;;;;17.84;77.42;98547.91;7237754;40;20265;31
2023/07/25 19:56:06;;;;;;;10.20;7.37;;;;;;;18.02;76.77;98561.53;7217076;40;20277;31
2023/07/25 20:01:38;;;;;;;8.40;7.33;;;;;;;18.11;76.38;98569.38;7272386;40;20282;31
2023/07/25 20:07:10;;;;;;;9.85;7.90;;;;;;;18.15;76.83;98592.41;7207783;40;20258;31
2023/07/25 20:12:46;;;;;;;10.45;8.00;;;;;;;18.12;76.68;98598.34;7201103;40;20290;31
2023/07/25 20:18:21;;;;;;;9.17;7.13;;;;;;;18.08;76.80;98608.03;7147932;40;20255;31
2023/07/25 20:23:56;;;;;;;10.35;7.85;;;;;;;18.02;76.79;98616.06;7179105;40;20360;31
2023/07/25 20:29:32;;;;;;;9.10;8.20;;;;;;;17.99;76.93;98610.22;7166204;40;20274;31
2023/07/25 20:35:04;;;;;;;9.63;8.17;;;;;;;17.95;76.73;98625.38;7206067;40;20282;31
2023/07/25 20:40:39;;;;;;;8.67;7.77;;;;;;;17.93;77.01;98638.41;7213632;40;20248;31
2023/07/25 20:46:15;;;;;;;8.60;7.37;;;;;;;17.87;77.03;98642.88;7233788;40;20272;31
2023/07/25 20:51:35;;;;;;;9.80;8.63;;;;;;;17.97;76.50;98656.81;7277992;39;20296;31
2023/07/25 20:57:07;;;;;;;13.70;7.80;;;;;;;17.93;76.27;98652.06;7111383;39;21413;31
2023/07/25 21:02:40;;;;;;;9.67;8.70;;;;;;;17.89;76.68;98651.69;7275693;40;20440;31
2023/07/25 21:08:15;;;;;;;11.70;9.10;;;;;;;17.89;76.89;98654.41;7185084;40;20262;31
2023/07/25 21:13:50;;;;;;;9.87;8.13;;;;;;;17.89;76.87;98659.87;7173928;40;20340;31
2023/07/25 21:19:26;;;;;;;10.20;9.13;;;;;;;17.74;76.84;98667.56;7176705;40;20283;31
2023/07/25 21:25:01;;;;;;;12.80;9.50;;;;;;;17.76;77.63;98670.91;7174930;40;20282;31
2023/07/25 21:30:22;;;;;;;10.45;9.40;;;;;;;17.79;77.10;98666.87;7141246;40;20321;31
2023/07/25 21:35:57;;;;;;;10.97;9.57;;;;;;;17.73;77.56;98682.25;7142380;40;22762;31
2023/07/25 21:41:29;;;;;;;12.43;10.70;;;;;;;17.82;78.19;98680.91;7175549;40;20269;31
2023/07/25 21:46:50;;;;;;;12.40;11.10;;;;;;;17.78;77.77;98687.84;7173245;40;20274;31
2023/07/25 21:52:25;;;;;;;13.40;11.97;;;;;;;17.75;78.25;98693.78;7182847;40;20256;31
2023/07/25 21:57:46;;;;;;;10.67;8.77;;;;;;;17.75;77.14;98696.50;7187047;40;20258;31
2023/07/25 22:03:06;;;;;;;9.35;8.45;;;;;;;17.76;77.27;98697.34;7185065;40;20392;31
2023/07/25 22:08:41;;;;;;;13.40;9.20;;;;;;;17.75;76.37;98701.94;7211638;40;20257;31
2023/07/25 22:13:59;;;;;;;8.93;8.03;;;;;;;17.71;77.25;98713.53;7207386;40;20320;31
2023/07/25 22:19:16;;;;;;;12.30;8.60;;;;;;;17.75;76.82;98715.59;7255082;40;20261;31
2023/07/25 22:24:48;;;;;;;7.37;6.40;;;;;;;17.66;76.46;98713.34;7215575;40;21423;31
2023/07/25 22:30:09;;;;;;;6.77;5.93;;;;;;;17.67;75.10;98715.88;7243640;40;20277;31
2023/07/25 22:35:27;;;;;;;7.20;6.03;;;;;;;17.64;75.69;98719.03;7218523;40;20277;31
2023/07/25 22:40:59;;;;;;;8.20;6.93;;;;;;;17.56;76.13;98719.28;7229742;40;20355;31
2023/07/25 22:46:17;;;;;;;8.53;7.50;;;;;;;17.55;76.18;98723.88;7241061;40;20257;31
2023/07/25 22:51:33;;;;;;;9.37;8.30;;;;;;;17.57;76.50;98729.13;7294902;39;20334;31
2023/07/25 23:02:10;;;;;;;9.25;8.35;;;;;;;17.58;77.01;98736.28;7248290;40;20357;31
2023/07/25 23:12:49;;;;;;;11.37;6.63;;;;;;;17.57;76.68;98743.59;7319864;39;20258;31
2023/07/25 23:23:30;;;;;;;8.00;4.70;;;;;;;17.43;76.35;98741.19;7271764;40;20441;31
2023/07/25 23:33:54;;;;;;;6.73;4.67;;;;;;;17.33;75.80;98749.03;7215214;40;20273;31
2023/07/25 23:44:31;;;;;;;7.17;4.37;;;;;;;17.21;76.44;98764.41;7278318;39;20427;31
2023/07/25 23:54:52;;;;;;;8.00;4.67;;;;;;;17.12;76.67;98763.84;7272629;40;20322;31
